sensor_id;sensor_type;location;lat;lon;timestamp;P1;durP1;ratioP1;P2;durP2;ratioP2
39242;SDS011;29823;47.404;8.566;2023-05-07T00:00:45;6.85;;;2.28;;
39242;SDS011;29823;47.404;8.566;2023-05-07T00:03:12;6.90;;;2.47;;
39242;SDS011;29823;47.404;8.566;2023-05-07T00:05:42;5.80;;;2.70;;
39242;SDS011;29823;47.404;8.566;2023-05-07T00:08:10;5.50;;;2.45;;
39242;SDS011;29823;47.404;8.566;2023-05-07T00:10:38;6.25;;;2.35;;
39242;SDS011;29823;47.404;8.566;2023-05-07T00:13:06;5.43;;;2.55;;
39242;SDS011;29823;47.404;8.566;2023-05-07T00:15:34;7.13;;;2.38;;
39242;SDS011;29823;47.404;8.566;2023-05-07T00:18:01;6.03;;;2.50;;
39242;SDS011;29823;47.404;8.566;2023-05-07T00:20:29;8.38;;;2.50;;
39242;SDS011;29823;47.404;8.566;2023-05-07T00:23:02;4.55;;;2.33;;
39242;SDS011;29823;47.404;8.566;2023-05-07T00:25:29;12.63;;;2.50;;
39242;SDS011;29823;47.404;8.566;2023-05-07T00:27:57;4.90;;;2.10;;
39242;SDS011;29823;47.404;8.566;2023-05-07T00:32:57;4.95;;;2.40;;
39242;SDS011;29823;47.404;8.566;2023-05-07T00:35:25;7.10;;;2.90;;
39242;SDS011;29823;47.404;8.566;2023-05-07T00:37:53;8.10;;;2.30;;
39242;SDS011;29823;47.404;8.566;2023-05-07T00:40:22;6.25;;;2.97;;
39242;SDS011;29823;47.404;8.566;2023-05-07T00:42:50;4.78;;;2.53;;
39242;SDS011;29823;47.404;8.566;2023-05-07T00:45:23;11.38;;;2.53;;
39242;SDS011;29823;47.404;8.566;2023-05-07T00:47:54;7.47;;;2.45;;
39242;SDS011;29823;47.404;8.566;2023-05-07T00:50:23;6.72;;;2.92;;
39242;SDS011;29823;47.404;8.566;2023-05-07T00:52:51;5.68;;;2.78;;
39242;SDS011;29823;47.404;8.566;2023-05-07T00:55:19;3.47;;;2.42;;
39242;SDS011;29823;47.404;8.566;2023-05-07T00:57:48;5.43;;;2.70;;
39242;SDS011;29823;47.404;8.566;2023-05-07T01:00:17;7.65;;;3.13;;
39242;SDS011;29823;47.404;8.566;2023-05-07T01:02:46;8.43;;;2.63;;
39242;SDS011;29823;47.404;8.566;2023-05-07T01:05:15;6.72;;;2.78;;
39242;SDS011;29823;47.404;8.566;2023-05-07T01:07:44;6.53;;;2.70;;
39242;SDS011;29823;47.404;8.566;2023-05-07T01:10:13;4.93;;;2.55;;
39242;SDS011;29823;47.404;8.566;2023-05-07T01:12:42;7.53;;;2.55;;
39242;SDS011;29823;47.404;8.566;2023-05-07T01:15:14;5.35;;;2.83;;
39242;SDS011;29823;47.404;8.566;2023-05-07T01:17:42;5.28;;;2.40;;
39242;SDS011;29823;47.404;8.566;2023-05-07T01:20:11;8.15;;;3.00;;
39242;SDS011;29823;47.404;8.566;2023-05-07T01:22:41;3.45;;;2.42;;
39242;SDS011;29823;47.404;8.566;2023-05-07T01:25:10;5.25;;;2.92;;
39242;SDS011;29823;47.404;8.566;2023-05-07T01:27:39;4.90;;;2.90;;
39242;SDS011;29823;47.404;8.566;2023-05-07T01:30:07;4.95;;;2.55;;
39242;SDS011;29823;47.404;8.566;2023-05-07T01:32:37;5.93;;;2.78;;
39242;SDS011;29823;47.404;8.566;2023-05-07T01:35:09;8.02;;;3.00;;
39242;SDS011;29823;47.404;8.566;2023-05-07T01:37:39;6.20;;;3.05;;
39242;SDS011;29823;47.404;8.566;2023-05-07T01:40:09;10.82;;;3.53;;
39242;SDS011;29823;47.404;8.566;2023-05-07T01:42:38;8.00;;;2.72;;
39242;SDS011;29823;47.404;8.566;2023-05-07T01:45:07;7.25;;;2.67;;
39242;SDS011;29823;47.404;8.566;2023-05-07T01:47:35;4.93;;;3.15;;
39242;SDS011;29823;47.404;8.566;2023-05-07T01:50:05;9.35;;;2.90;;
39242;SDS011;29823;47.404;8.566;2023-05-07T01:52:35;4.40;;;2.88;;
39242;SDS011;29823;47.404;8.566;2023-05-07T01:55:05;7.35;;;3.10;;
39242;SDS011;29823;47.404;8.566;2023-05-07T01:57:35;3.38;;;2.60;;
39242;SDS011;29823;47.404;8.566;2023-05-07T02:00:03;4.97;;;2.80;;
39242;SDS011;29823;47.404;8.566;2023-05-07T02:02:32;6.68;;;2.55;;
39242;SDS011;29823;47.404;8.566;2023-05-07T02:05:00;4.45;;;2.58;;
39242;SDS011;29823;47.404;8.566;2023-05-07T02:07:28;5.40;;;2.45;;
39242;SDS011;29823;47.404;8.566;2023-05-07T02:09:56;6.82;;;2.45;;
39242;SDS011;29823;47.404;8.566;2023-05-07T02:12:24;5.95;;;2.40;;
39242;SDS011;29823;47.404;8.566;2023-05-07T02:14:53;4.50;;;2.47;;
39242;SDS011;29823;47.404;8.566;2023-05-07T02:17:21;9.10;;;3.15;;
39242;SDS011;29823;47.404;8.566;2023-05-07T02:19:49;11.80;;;6.10;;
39242;SDS011;29823;47.404;8.566;2023-05-07T02:22:17;8.10;;;4.40;;
39242;SDS011;29823;47.404;8.566;2023-05-07T02:24:45;6.30;;;2.40;;
39242;SDS011;29823;47.404;8.566;2023-05-07T02:27:13;7.75;;;4.05;;
39242;SDS011;29823;47.404;8.566;2023-05-07T02:29:41;7.22;;;2.15;;
39242;SDS011;29823;47.404;8.566;2023-05-07T02:32:10;2.47;;;1.92;;
39242;SDS011;29823;47.404;8.566;2023-05-07T02:34:38;8.02;;;2.40;;
39242;SDS011;29823;47.404;8.566;2023-05-07T02:37:05;2.65;;;1.80;;
39242;SDS011;29823;47.404;8.566;2023-05-07T02:39:33;9.45;;;2.15;;
39242;SDS011;29823;47.404;8.566;2023-05-07T02:42:01;8.40;;;2.17;;
39242;SDS011;29823;47.404;8.566;2023-05-07T02:44:29;4.78;;;2.33;;
39242;SDS011;29823;47.404;8.566;2023-05-07T02:46:57;3.65;;;2.08;;
39242;SDS011;29823;47.404;8.566;2023-05-07T02:49:26;4.45;;;2.42;;
39242;SDS011;29823;47.404;8.566;2023-05-07T02:51:54;3.60;;;2.38;;
39242;SDS011;29823;47.404;8.566;2023-05-07T02:54:22;5.45;;;2.53;;
39242;SDS011;29823;47.404;8.566;2023-05-07T02:56:50;5.53;;;2.53;;
39242;SDS011;29823;47.404;8.566;2023-05-07T02:59:18;8.93;;;2.67;;
39242;SDS011;29823;47.404;8.566;2023-05-07T03:01:46;4.68;;;2.40;;
39242;SDS011;29823;47.404;8.566;2023-05-07T03:04:15;3.05;;;2.28;;
39242;SDS011;29823;47.404;8.566;2023-05-07T03:06:44;4.68;;;2.20;;
39242;SDS011;29823;47.404;8.566;2023-05-07T03:09:12;5.22;;;2.45;;
39242;SDS011;29823;47.404;8.566;2023-05-07T03:11:40;4.57;;;2.63;;
39242;SDS011;29823;47.404;8.566;2023-05-07T03:14:08;6.53;;;2.60;;
39242;SDS011;29823;47.404;8.566;2023-05-07T03:16:35;5.30;;;2.90;;
39242;SDS011;29823;47.404;8.566;2023-05-07T03:19:03;5.30;;;3.10;;
39242;SDS011;29823;47.404;8.566;2023-05-07T03:21:31;5.32;;;3.00;;
39242;SDS011;29823;47.404;8.566;2023-05-07T03:24:02;3.50;;;2.40;;
39242;SDS011;29823;47.404;8.566;2023-05-07T03:26:29;3.03;;;2.25;;
39242;SDS011;29823;47.404;8.566;2023-05-07T03:28:57;7.65;;;2.80;;
39242;SDS011;29823;47.404;8.566;2023-05-07T03:31:25;5.82;;;2.85;;
39242;SDS011;29823;47.404;8.566;2023-05-07T03:33:53;5.10;;;2.80;;
39242;SDS011;29823;47.404;8.566;2023-05-07T03:36:22;10.98;;;2.75;;
39242;SDS011;29823;47.404;8.566;2023-05-07T03:38:51;4.78;;;2.50;;
39242;SDS011;29823;47.404;8.566;2023-05-07T03:41:20;6.55;;;2.75;;
39242;SDS011;29823;47.404;8.566;2023-05-07T03:43:48;7.53;;;2.67;;
39242;SDS011;29823;47.404;8.566;2023-05-07T03:46:16;5.28;;;2.90;;
39242;SDS011;29823;47.404;8.566;2023-05-07T03:48:44;4.80;;;2.80;;
39242;SDS011;29823;47.404;8.566;2023-05-07T03:51:12;8.32;;;3.20;;
39242;SDS011;29823;47.404;8.566;2023-05-07T03:53:40;4.05;;;2.50;;
39242;SDS011;29823;47.404;8.566;2023-05-07T03:56:07;5.45;;;2.97;;
39242;SDS011;29823;47.404;8.566;2023-05-07T03:58:37;3.35;;;2.63;;
39242;SDS011;29823;47.404;8.566;2023-05-07T04:01:04;4.60;;;2.45;;
39242;SDS011;29823;47.404;8.566;2023-05-07T04:03:33;3.83;;;3.00;;
39242;SDS011;29823;47.404;8.566;2023-05-07T04:06:01;6.57;;;2.75;;
39242;SDS011;29823;47.404;8.566;2023-05-07T04:08:29;3.75;;;2.50;;
39242;SDS011;29823;47.404;8.566;2023-05-07T04:10:58;7.78;;;2.80;;
39242;SDS011;29823;47.404;8.566;2023-05-07T04:13:26;7.72;;;2.58;;
39242;SDS011;29823;47.404;8.566;2023-05-07T04:15:56;7.22;;;2.67;;
39242;SDS011;29823;47.404;8.566;2023-05-07T04:18:24;3.65;;;2.35;;
39242;SDS011;29823;47.404;8.566;2023-05-07T04:20:52;3.33;;;2.70;;
39242;SDS011;29823;47.404;8.566;2023-05-07T04:23:19;6.43;;;3.05;;
39242;SDS011;29823;47.404;8.566;2023-05-07T04:25:47;10.02;;;4.13;;
39242;SDS011;29823;47.404;8.566;2023-05-07T04:28:16;6.20;;;3.47;;
39242;SDS011;29823;47.404;8.566;2023-05-07T04:30:45;6.90;;;3.70;;
39242;SDS011;29823;47.404;8.566;2023-05-07T04:33:15;5.00;;;2.38;;
39242;SDS011;29823;47.404;8.566;2023-05-07T04:35:44;3.93;;;2.83;;
39242;SDS011;29823;47.404;8.566;2023-05-07T04:38:12;6.22;;;2.90;;
39242;SDS011;29823;47.404;8.566;2023-05-07T04:40:40;4.30;;;3.00;;
39242;SDS011;29823;47.404;8.566;2023-05-07T04:43:08;4.68;;;2.55;;
39242;SDS011;29823;47.404;8.566;2023-05-07T04:45:36;4.93;;;2.65;;
39242;SDS011;29823;47.404;8.566;2023-05-07T04:48:06;4.10;;;2.60;;
39242;SDS011;29823;47.404;8.566;2023-05-07T04:50:36;6.05;;;2.50;;
39242;SDS011;29823;47.404;8.566;2023-05-07T04:53:04;5.55;;;2.65;;
39242;SDS011;29823;47.404;8.566;2023-05-07T04:55:32;2.75;;;2.15;;
39242;SDS011;29823;47.404;8.566;2023-05-07T04:58:00;6.65;;;2.75;;
39242;SDS011;29823;47.404;8.566;2023-05-07T05:00:28;5.70;;;2.05;;
39242;SDS011;29823;47.404;8.566;2023-05-07T05:02:56;4.95;;;2.40;;
39242;SDS011;29823;47.404;8.566;2023-05-07T05:05:24;4.35;;;2.03;;
39242;SDS011;29823;47.404;8.566;2023-05-07T05:07:53;2.45;;;1.77;;
39242;SDS011;29823;47.404;8.566;2023-05-07T05:10:21;2.63;;;1.90;;
39242;SDS011;29823;47.404;8.566;2023-05-07T05:12:50;5.30;;;1.95;;
39242;SDS011;29823;47.404;8.566;2023-05-07T05:15:18;4.20;;;1.60;;
39242;SDS011;29823;47.404;8.566;2023-05-07T05:17:46;3.38;;;1.77;;
39242;SDS011;29823;47.404;8.566;2023-05-07T05:20:13;4.03;;;1.75;;
39242;SDS011;29823;47.404;8.566;2023-05-07T05:22:41;5.43;;;1.90;;
39242;SDS011;29823;47.404;8.566;2023-05-07T05:25:11;4.82;;;2.15;;
39242;SDS011;29823;47.404;8.566;2023-05-07T05:27:38;3.67;;;2.33;;
39242;SDS011;29823;47.404;8.566;2023-05-07T05:30:07;3.97;;;2.03;;
39242;SDS011;29823;47.404;8.566;2023-05-07T05:32:35;3.78;;;1.83;;
39242;SDS011;29823;47.404;8.566;2023-05-07T05:35:03;4.47;;;2.08;;
39242;SDS011;29823;47.404;8.566;2023-05-07T05:37:32;3.83;;;1.98;;
39242;SDS011;29823;47.404;8.566;2023-05-07T05:40:00;6.68;;;2.40;;
39242;SDS011;29823;47.404;8.566;2023-05-07T05:42:29;3.92;;;2.13;;
39242;SDS011;29823;47.404;8.566;2023-05-07T05:44:57;3.58;;;2.05;;
39242;SDS011;29823;47.404;8.566;2023-05-07T05:47:24;2.97;;;2.15;;
39242;SDS011;29823;47.404;8.566;2023-05-07T05:49:52;5.03;;;2.40;;
39242;SDS011;29823;47.404;8.566;2023-05-07T05:52:20;4.00;;;2.50;;
39242;SDS011;29823;47.404;8.566;2023-05-07T05:54:49;9.00;;;2.17;;
39242;SDS011;29823;47.404;8.566;2023-05-07T05:57:17;6.13;;;2.75;;
39242;SDS011;29823;47.404;8.566;2023-05-07T05:59:47;6.93;;;2.72;;
39242;SDS011;29823;47.404;8.566;2023-05-07T06:02:15;5.07;;;2.55;;
39242;SDS011;29823;47.404;8.566;2023-05-07T06:04:43;6.60;;;2.70;;
39242;SDS011;29823;47.404;8.566;2023-05-07T06:07:11;6.50;;;3.28;;
39242;SDS011;29823;47.404;8.566;2023-05-07T06:09:39;6.05;;;3.17;;
39242;SDS011;29823;47.404;8.566;2023-05-07T06:12:07;9.57;;;3.03;;
39242;SDS011;29823;47.404;8.566;2023-05-07T06:14:35;8.18;;;4.13;;
39242;SDS011;29823;47.404;8.566;2023-05-07T06:17:04;6.15;;;4.18;;
39242;SDS011;29823;47.404;8.566;2023-05-07T06:19:32;8.65;;;4.57;;
39242;SDS011;29823;47.404;8.566;2023-05-07T06:21:59;8.00;;;4.20;;
39242;SDS011;29823;47.404;8.566;2023-05-07T06:24:28;8.25;;;4.43;;
39242;SDS011;29823;47.404;8.566;2023-05-07T06:26:56;7.22;;;3.55;;
39242;SDS011;29823;47.404;8.566;2023-05-07T06:29:25;6.03;;;3.90;;
39242;SDS011;29823;47.404;8.566;2023-05-07T06:31:52;6.25;;;3.50;;
39242;SDS011;29823;47.404;8.566;2023-05-07T06:34:24;6.57;;;3.95;;
39242;SDS011;29823;47.404;8.566;2023-05-07T06:36:52;5.68;;;3.75;;
39242;SDS011;29823;47.404;8.566;2023-05-07T06:39:19;8.00;;;3.55;;
39242;SDS011;29823;47.404;8.566;2023-05-07T06:41:47;6.22;;;3.97;;
39242;SDS011;29823;47.404;8.566;2023-05-07T06:44:15;6.13;;;3.20;;
39242;SDS011;29823;47.404;8.566;2023-05-07T06:46:43;7.00;;;3.22;;
39242;SDS011;29823;47.404;8.566;2023-05-07T06:49:11;6.53;;;3.13;;
39242;SDS011;29823;47.404;8.566;2023-05-07T06:51:41;6.20;;;3.08;;
39242;SDS011;29823;47.404;8.566;2023-05-07T06:54:08;4.00;;;2.45;;
39242;SDS011;29823;47.404;8.566;2023-05-07T06:56:36;4.40;;;2.47;;
39242;SDS011;29823;47.404;8.566;2023-05-07T06:59:04;8.20;;;2.53;;
39242;SDS011;29823;47.404;8.566;2023-05-07T07:01:32;5.70;;;2.17;;
39242;SDS011;29823;47.404;8.566;2023-05-07T07:04:00;5.45;;;2.58;;
39242;SDS011;29823;47.404;8.566;2023-05-07T07:06:28;4.70;;;2.20;;
39242;SDS011;29823;47.404;8.566;2023-05-07T07:08:59;4.20;;;2.42;;
39242;SDS011;29823;47.404;8.566;2023-05-07T07:11:27;5.78;;;2.30;;
39242;SDS011;29823;47.404;8.566;2023-05-07T07:13:55;2.75;;;1.80;;
39242;SDS011;29823;47.404;8.566;2023-05-07T07:16:23;6.18;;;2.45;;
39242;SDS011;29823;47.404;8.566;2023-05-07T07:18:51;3.70;;;2.22;;
39242;SDS011;29823;47.404;8.566;2023-05-07T07:21:19;4.63;;;2.35;;
39242;SDS011;29823;47.404;8.566;2023-05-07T07:23:47;3.13;;;2.15;;
39242;SDS011;29823;47.404;8.566;2023-05-07T07:26:16;4.00;;;2.03;;
39242;SDS011;29823;47.404;8.566;2023-05-07T07:28:44;2.90;;;2.08;;
39242;SDS011;29823;47.404;8.566;2023-05-07T07:31:13;6.05;;;1.90;;
39242;SDS011;29823;47.404;8.566;2023-05-07T07:33:41;5.40;;;1.90;;
39242;SDS011;29823;47.404;8.566;2023-05-07T07:36:09;3.78;;;2.17;;
39242;SDS011;29823;47.404;8.566;2023-05-07T07:38:37;5.18;;;1.77;;
39242;SDS011;29823;47.404;8.566;2023-05-07T07:41:05;4.30;;;1.75;;
39242;SDS011;29823;47.404;8.566;2023-05-07T07:43:34;4.47;;;1.80;;
39242;SDS011;29823;47.404;8.566;2023-05-07T07:46:03;8.98;;;1.92;;
39242;SDS011;29823;47.404;8.566;2023-05-07T07:48:31;2.97;;;1.65;;
39242;SDS011;29823;47.404;8.566;2023-05-07T07:50:59;7.63;;;1.85;;
39242;SDS011;29823;47.404;8.566;2023-05-07T07:53:26;4.63;;;1.60;;
39242;SDS011;29823;47.404;8.566;2023-05-07T07:55:54;3.10;;;1.80;;
39242;SDS011;29823;47.404;8.566;2023-05-07T07:58:25;3.08;;;1.80;;
39242;SDS011;29823;47.404;8.566;2023-05-07T08:00:54;6.00;;;1.95;;
39242;SDS011;29823;47.404;8.566;2023-05-07T08:03:22;4.80;;;2.55;;
39242;SDS011;29823;47.404;8.566;2023-05-07T08:05:50;4.93;;;2.42;;
39242;SDS011;29823;47.404;8.566;2023-05-07T08:08:18;6.28;;;2.78;;
39242;SDS011;29823;47.404;8.566;2023-05-07T08:10:46;8.20;;;2.92;;
39242;SDS011;29823;47.404;8.566;2023-05-07T08:13:16;8.10;;;2.70;;
39242;SDS011;29823;47.404;8.566;2023-05-07T08:15:44;7.00;;;2.90;;
39242;SDS011;29823;47.404;8.566;2023-05-07T08:18:13;6.68;;;3.20;;
39242;SDS011;29823;47.404;8.566;2023-05-07T08:20:41;5.05;;;2.47;;
39242;SDS011;29823;47.404;8.566;2023-05-07T08:23:09;6.30;;;2.40;;
39242;SDS011;29823;47.404;8.566;2023-05-07T08:25:37;4.60;;;2.30;;
39242;SDS011;29823;47.404;8.566;2023-05-07T08:28:04;3.33;;;2.10;;
39242;SDS011;29823;47.404;8.566;2023-05-07T08:30:35;4.95;;;2.08;;
39242;SDS011;29823;47.404;8.566;2023-05-07T08:33:02;3.78;;;1.95;;
39242;SDS011;29823;47.404;8.566;2023-05-07T08:35:32;4.53;;;1.95;;
39242;SDS011;29823;47.404;8.566;2023-05-07T08:37:59;7.47;;;2.15;;
39242;SDS011;29823;47.404;8.566;2023-05-07T08:40:27;6.95;;;1.85;;
39242;SDS011;29823;47.404;8.566;2023-05-07T08:42:56;2.75;;;1.67;;
39242;SDS011;29823;47.404;8.566;2023-05-07T08:45:25;3.33;;;2.20;;
39242;SDS011;29823;47.404;8.566;2023-05-07T08:47:55;3.65;;;1.67;;
39242;SDS011;29823;47.404;8.566;2023-05-07T08:50:26;5.95;;;2.10;;
39242;SDS011;29823;47.404;8.566;2023-05-07T08:52:55;8.90;;;1.83;;
39242;SDS011;29823;47.404;8.566;2023-05-07T08:55:24;5.05;;;2.20;;
39242;SDS011;29823;47.404;8.566;2023-05-07T08:57:51;4.68;;;2.60;;
39242;SDS011;29823;47.404;8.566;2023-05-07T09:00:20;3.30;;;2.08;;
39242;SDS011;29823;47.404;8.566;2023-05-07T09:02:48;4.30;;;2.00;;
39242;SDS011;29823;47.404;8.566;2023-05-07T09:05:16;3.30;;;1.80;;
39242;SDS011;29823;47.404;8.566;2023-05-07T09:07:43;4.50;;;1.90;;
39242;SDS011;29823;47.404;8.566;2023-05-07T09:10:13;6.45;;;2.28;;
39242;SDS011;29823;47.404;8.566;2023-05-07T09:12:41;4.20;;;2.15;;
39242;SDS011;29823;47.404;8.566;2023-05-07T09:15:09;6.10;;;2.00;;
39242;SDS011;29823;47.404;8.566;2023-05-07T09:17:38;2.92;;;1.90;;
39242;SDS011;29823;47.404;8.566;2023-05-07T09:20:07;2.85;;;2.22;;
39242;SDS011;29823;47.404;8.566;2023-05-07T09:22:36;4.43;;;2.55;;
39242;SDS011;29823;47.404;8.566;2023-05-07T09:25:05;2.97;;;2.15;;
39242;SDS011;29823;47.404;8.566;2023-05-07T09:27:36;4.55;;;2.33;;
39242;SDS011;29823;47.404;8.566;2023-05-07T09:30:04;4.68;;;2.25;;
39242;SDS011;29823;47.404;8.566;2023-05-07T09:32:34;7.22;;;2.20;;
39242;SDS011;29823;47.404;8.566;2023-05-07T09:35:04;7.50;;;2.10;;
39242;SDS011;29823;47.404;8.566;2023-05-07T09:37:32;3.00;;;2.00;;
39242;SDS011;29823;47.404;8.566;2023-05-07T09:40:00;3.33;;;2.08;;
39242;SDS011;29823;47.404;8.566;2023-05-07T09:42:29;4.80;;;2.08;;
39242;SDS011;29823;47.404;8.566;2023-05-07T09:45:00;4.10;;;1.90;;
39242;SDS011;29823;47.404;8.566;2023-05-07T09:47:28;3.08;;;2.05;;
39242;SDS011;29823;47.404;8.566;2023-05-07T09:49:59;7.18;;;2.40;;
39242;SDS011;29823;47.404;8.566;2023-05-07T09:52:33;5.03;;;2.22;;
39242;SDS011;29823;47.404;8.566;2023-05-07T09:55:02;5.30;;;1.90;;
39242;SDS011;29823;47.404;8.566;2023-05-07T09:57:32;3.10;;;2.20;;
39242;SDS011;29823;47.404;8.566;2023-05-07T10:00:03;4.57;;;2.38;;
39242;SDS011;29823;47.404;8.566;2023-05-07T10:02:31;6.47;;;2.22;;
39242;SDS011;29823;47.404;8.566;2023-05-07T10:05:03;6.60;;;2.23;;
39242;SDS011;29823;47.404;8.566;2023-05-07T10:07:31;5.22;;;2.38;;
39242;SDS011;29823;47.404;8.566;2023-05-07T10:09:59;3.15;;;1.98;;
39242;SDS011;29823;47.404;8.566;2023-05-07T10:12:30;7.90;;;2.13;;
39242;SDS011;29823;47.404;8.566;2023-05-07T10:15:07;8.77;;;1.90;;
39242;SDS011;29823;47.404;8.566;2023-05-07T10:17:37;2.40;;;2.10;;
39242;SDS011;29823;47.404;8.566;2023-05-07T10:20:06;6.30;;;2.42;;
39242;SDS011;29823;47.404;8.566;2023-05-07T10:22:37;7.80;;;2.08;;
39242;SDS011;29823;47.404;8.566;2023-05-07T10:25:23;5.72;;;2.00;;
39242;SDS011;29823;47.404;8.566;2023-05-07T10:27:56;2.78;;;1.98;;
39242;SDS011;29823;47.404;8.566;2023-05-07T10:30:29;5.13;;;2.10;;
39242;SDS011;29823;47.404;8.566;2023-05-07T10:33:06;4.32;;;2.00;;
39242;SDS011;29823;47.404;8.566;2023-05-07T10:35:38;3.58;;;2.08;;
39242;SDS011;29823;47.404;8.566;2023-05-07T10:38:08;2.83;;;1.80;;
39242;SDS011;29823;47.404;8.566;2023-05-07T10:40:37;4.15;;;2.22;;
39242;SDS011;29823;47.404;8.566;2023-05-07T10:43:05;6.35;;;2.17;;
39242;SDS011;29823;47.404;8.566;2023-05-07T10:45:37;4.38;;;2.38;;
39242;SDS011;29823;47.404;8.566;2023-05-07T10:48:05;5.43;;;2.22;;
39242;SDS011;29823;47.404;8.566;2023-05-07T10:53:45;5.63;;;2.00;;
39242;SDS011;29823;47.404;8.566;2023-05-07T10:56:26;4.13;;;2.00;;
39242;SDS011;29823;47.404;8.566;2023-05-07T10:58:55;5.85;;;2.28;;
39242;SDS011;29823;47.404;8.566;2023-05-07T11:10:02;5.25;;;2.05;;
39242;SDS011;29823;47.404;8.566;2023-05-07T11:12:53;4.15;;;2.30;;
39242;SDS011;29823;47.404;8.566;2023-05-07T11:15:35;5.78;;;2.05;;
39242;SDS011;29823;47.404;8.566;2023-05-07T11:18:06;5.78;;;2.05;;
39242;SDS011;29823;47.404;8.566;2023-05-07T11:20:47;5.78;;;2.25;;
39242;SDS011;29823;47.404;8.566;2023-05-07T11:26:25;4.68;;;2.03;;
39242;SDS011;29823;47.404;8.566;2023-05-07T11:28:54;4.43;;;2.28;;
39242;SDS011;29823;47.404;8.566;2023-05-07T11:31:24;4.05;;;2.28;;
39242;SDS011;29823;47.404;8.566;2023-05-07T11:33:54;3.90;;;2.25;;
39242;SDS011;29823;47.404;8.566;2023-05-07T11:36:23;4.28;;;2.05;;
39242;SDS011;29823;47.404;8.566;2023-05-07T11:38:52;4.80;;;1.88;;
39242;SDS011;29823;47.404;8.566;2023-05-07T11:41:20;3.33;;;1.92;;
39242;SDS011;29823;47.404;8.566;2023-05-07T11:43:55;4.93;;;2.20;;
39242;SDS011;29823;47.404;8.566;2023-05-07T11:46:24;5.72;;;2.40;;
39242;SDS011;29823;47.404;8.566;2023-05-07T11:48:52;5.68;;;2.45;;
39242;SDS011;29823;47.404;8.566;2023-05-07T11:51:22;10.32;;;2.47;;
39242;SDS011;29823;47.404;8.566;2023-05-07T11:53:52;6.80;;;2.45;;
39242;SDS011;29823;47.404;8.566;2023-05-07T11:56:20;5.10;;;2.13;;
39242;SDS011;29823;47.404;8.566;2023-05-07T11:58:48;3.40;;;2.30;;
39242;SDS011;29823;47.404;8.566;2023-05-07T12:01:17;7.22;;;2.50;;
39242;SDS011;29823;47.404;8.566;2023-05-07T12:03:45;4.03;;;2.47;;
39242;SDS011;29823;47.404;8.566;2023-05-07T12:06:14;5.15;;;2.90;;
39242;SDS011;29823;47.404;8.566;2023-05-07T12:08:45;4.90;;;2.60;;
39242;SDS011;29823;47.404;8.566;2023-05-07T12:11:14;3.40;;;2.20;;
39242;SDS011;29823;47.404;8.566;2023-05-07T12:13:44;8.50;;;2.08;;
39242;SDS011;29823;47.404;8.566;2023-05-07T12:16:12;5.75;;;2.35;;
39242;SDS011;29823;47.404;8.566;2023-05-07T12:18:40;5.90;;;2.08;;
39242;SDS011;29823;47.404;8.566;2023-05-07T12:21:08;5.20;;;2.22;;
39242;SDS011;29823;47.404;8.566;2023-05-07T12:23:37;3.78;;;2.35;;
39242;SDS011;29823;47.404;8.566;2023-05-07T12:26:07;3.92;;;2.22;;
39242;SDS011;29823;47.404;8.566;2023-05-07T12:28:36;11.98;;;2.35;;
39242;SDS011;29823;47.404;8.566;2023-05-07T12:31:06;4.40;;;2.20;;
39242;SDS011;29823;47.404;8.566;2023-05-07T12:33:34;3.22;;;2.22;;
39242;SDS011;29823;47.404;8.566;2023-05-07T12:36:03;5.55;;;2.45;;
39242;SDS011;29823;47.404;8.566;2023-05-07T12:38:35;6.20;;;2.22;;
39242;SDS011;29823;47.404;8.566;2023-05-07T12:41:04;7.78;;;2.28;;
39242;SDS011;29823;47.404;8.566;2023-05-07T12:43:34;4.45;;;2.10;;
39242;SDS011;29823;47.404;8.566;2023-05-07T12:46:03;3.50;;;2.05;;
39242;SDS011;29823;47.404;8.566;2023-05-07T12:48:32;3.25;;;1.80;;
39242;SDS011;29823;47.404;8.566;2023-05-07T12:51:00;3.47;;;2.10;;
39242;SDS011;29823;47.404;8.566;2023-05-07T12:53:29;3.22;;;2.10;;
39242;SDS011;29823;47.404;8.566;2023-05-07T12:55:57;3.83;;;1.95;;
39242;SDS011;29823;47.404;8.566;2023-05-07T12:58:27;7.03;;;2.05;;
39242;SDS011;29823;47.404;8.566;2023-05-07T13:00:58;4.60;;;2.17;;
39242;SDS011;29823;47.404;8.566;2023-05-07T13:03:27;5.45;;;2.42;;
39242;SDS011;29823;47.404;8.566;2023-05-07T13:05:57;4.35;;;2.05;;
39242;SDS011;29823;47.404;8.566;2023-05-07T13:08:26;5.07;;;2.60;;
39242;SDS011;29823;47.404;8.566;2023-05-07T13:10:57;4.05;;;2.63;;
39242;SDS011;29823;47.404;8.566;2023-05-07T13:13:25;7.95;;;2.75;;
39242;SDS011;29823;47.404;8.566;2023-05-07T13:18:26;6.22;;;2.50;;
39242;SDS011;29823;47.404;8.566;2023-05-07T13:20:57;2.95;;;2.20;;
39242;SDS011;29823;47.404;8.566;2023-05-07T13:23:25;6.20;;;2.97;;
39242;SDS011;29823;47.404;8.566;2023-05-07T13:25:53;4.93;;;2.55;;
39242;SDS011;29823;47.404;8.566;2023-05-07T13:28:22;3.17;;;2.20;;
39242;SDS011;29823;47.404;8.566;2023-05-07T13:30:50;5.80;;;2.30;;
39242;SDS011;29823;47.404;8.566;2023-05-07T13:33:20;6.10;;;2.47;;
39242;SDS011;29823;47.404;8.566;2023-05-07T13:35:47;4.80;;;2.30;;
39242;SDS011;29823;47.404;8.566;2023-05-07T13:38:15;4.75;;;2.03;;
39242;SDS011;29823;47.404;8.566;2023-05-07T13:40:44;4.55;;;2.50;;
39242;SDS011;29823;47.404;8.566;2023-05-07T13:43:11;2.90;;;2.25;;
39242;SDS011;29823;47.404;8.566;2023-05-07T13:45:40;5.40;;;2.42;;
39242;SDS011;29823;47.404;8.566;2023-05-07T13:48:08;3.47;;;2.20;;
39242;SDS011;29823;47.404;8.566;2023-05-07T13:50:37;5.18;;;2.47;;
39242;SDS011;29823;47.404;8.566;2023-05-07T13:53:05;8.63;;;2.10;;
39242;SDS011;29823;47.404;8.566;2023-05-07T13:55:33;3.85;;;2.10;;
39242;SDS011;29823;47.404;8.566;2023-05-07T13:58:01;4.03;;;2.10;;
39242;SDS011;29823;47.404;8.566;2023-05-07T14:03:00;4.65;;;1.65;;
39242;SDS011;29823;47.404;8.566;2023-05-07T14:05:29;5.40;;;1.95;;
39242;SDS011;29823;47.404;8.566;2023-05-07T14:07:58;2.45;;;1.60;;
39242;SDS011;29823;47.404;8.566;2023-05-07T14:10:26;3.15;;;1.80;;
39242;SDS011;29823;47.404;8.566;2023-05-07T14:12:54;6.70;;;2.40;;
39242;SDS011;29823;47.404;8.566;2023-05-07T14:15:21;4.45;;;2.10;;
39242;SDS011;29823;47.404;8.566;2023-05-07T14:17:49;6.80;;;1.98;;
39242;SDS011;29823;47.404;8.566;2023-05-07T14:20:17;2.55;;;1.98;;
39242;SDS011;29823;47.404;8.566;2023-05-07T14:22:45;2.33;;;1.80;;
39242;SDS011;29823;47.404;8.566;2023-05-07T14:25:14;4.43;;;2.03;;
39242;SDS011;29823;47.404;8.566;2023-05-07T14:27:42;7.40;;;2.10;;
39242;SDS011;29823;47.404;8.566;2023-05-07T14:30:10;6.15;;;2.40;;
39242;SDS011;29823;47.404;8.566;2023-05-07T14:32:38;5.22;;;2.20;;
39242;SDS011;29823;47.404;8.566;2023-05-07T14:35:06;6.07;;;2.20;;
39242;SDS011;29823;47.404;8.566;2023-05-07T14:37:35;4.00;;;2.08;;
39242;SDS011;29823;47.404;8.566;2023-05-07T14:40:03;6.40;;;2.05;;
39242;SDS011;29823;47.404;8.566;2023-05-07T14:42:33;2.05;;;1.63;;
39242;SDS011;29823;47.404;8.566;2023-05-07T14:45:01;5.30;;;1.50;;
39242;SDS011;29823;47.404;8.566;2023-05-07T14:47:30;3.60;;;1.70;;
39242;SDS011;29823;47.404;8.566;2023-05-07T14:49:57;2.80;;;1.88;;
39242;SDS011;29823;47.404;8.566;2023-05-07T14:52:27;3.35;;;1.92;;
39242;SDS011;29823;47.404;8.566;2023-05-07T14:54:55;3.33;;;2.00;;
39242;SDS011;29823;47.404;8.566;2023-05-07T14:57:22;6.22;;;2.10;;
39242;SDS011;29823;47.404;8.566;2023-05-07T14:59:52;4.53;;;2.25;;
39242;SDS011;29823;47.404;8.566;2023-05-07T15:02:20;4.63;;;2.17;;
39242;SDS011;29823;47.404;8.566;2023-05-07T15:04:48;4.13;;;2.28;;
39242;SDS011;29823;47.404;8.566;2023-05-07T15:07:16;4.25;;;2.25;;
39242;SDS011;29823;47.404;8.566;2023-05-07T15:09:44;8.27;;;3.72;;
39242;SDS011;29823;47.404;8.566;2023-05-07T15:12:12;5.57;;;4.18;;
39242;SDS011;29823;47.404;8.566;2023-05-07T15:14:41;4.78;;;2.95;;
39242;SDS011;29823;47.404;8.566;2023-05-07T15:17:10;8.50;;;3.85;;
39242;SDS011;29823;47.404;8.566;2023-05-07T15:19:41;6.43;;;3.70;;